Time;durP1;ratioP1;P1;durP2;ratioP2;P2;SDS_P1;SDS_P2;PMS_P1;PMS_P2;Temp;Humidity;BMP_temperature;BMP_pressure;BME280_temperature;BME280_humidity;BME280_pressure;Samples;Min_cycle;Max_cycle;Signal;HPM_P1;HPM_P2
2024/04/14 00:00:01;;;;;;;6.28;1.15;;;13.90;99.90;;;;;;5242640;27;20005;-85
2024/04/14 00:02:27;;;;;;;5.32;1.13;;;13.90;99.90;;;;;;5271282;27;20003;-84
2024/04/14 00:04:55;;;;;;;4.60;0.88;;;13.80;99.90;;;;;;5270822;27;20474;-85
2024/04/14 00:07:24;;;;;;;6.22;0.80;;;13.80;99.90;;;;;;5270224;27;19999;-83
2024/04/14 00:09:49;;;;;;;5.18;0.80;;;13.70;99.90;;;;;;5205945;27;20007;-84
2024/04/14 00:12:17;;;;;;;5.57;1.00;;;13.70;99.90;;;;;;5256803;27;20035;-84
2024/04/14 00:14:43;;;;;;;4.07;0.60;;;13.70;99.90;;;;;;5255891;27;20009;-84
2024/04/14 00:17:08;;;;;;;7.65;1.00;;;13.60;99.90;;;;;;5236662;27;20053;-84
2024/04/14 00:19:34;;;;;;;4.95;0.80;;;13.60;99.90;;;;;;5267391;27;19998;-84
2024/04/14 00:21:59;;;;;;;6.72;1.17;;;13.50;99.90;;;;;;5272349;27;20017;-84
2024/04/14 00:24:25;;;;;;;5.25;1.10;;;13.50;99.90;;;;;;5240265;27;20002;-83
2024/04/14 00:26:50;;;;;;;7.13;1.40;;;13.50;99.90;;;;;;5241475;27;20106;-84
2024/04/14 00:29:16;;;;;;;7.82;1.35;;;13.40;99.90;;;;;;5265325;27;20009;-84
2024/04/14 00:31:44;;;;;;;11.02;1.65;;;13.40;99.90;;;;;;5269678;27;20010;-84
2024/04/14 00:34:10;;;;;;;6.43;1.30;;;13.40;99.90;;;;;;5272016;27;20456;-84
2024/04/14 00:36:36;;;;;;;9.27;1.30;;;13.40;99.90;;;;;;5244798;27;20002;-84
2024/04/14 00:39:03;;;;;;;7.95;1.45;;;13.30;99.90;;;;;;5240744;27;20035;-84
2024/04/14 00:41:28;;;;;;;6.75;1.17;;;13.30;99.90;;;;;;5278460;27;20446;-83
2024/04/14 00:43:57;;;;;;;8.02;1.30;;;13.30;99.90;;;;;;5243403;27;20084;-83
2024/04/14 00:46:23;;;;;;;5.40;1.40;;;13.30;99.90;;;;;;5248445;27;19998;-84
2024/04/14 00:48:49;;;;;;;10.27;1.25;;;13.20;99.90;;;;;;5270005;27;20080;-82
2024/04/14 00:51:19;;;;;;;5.95;1.20;;;13.20;99.90;;;;;;5268398;27;20006;-84
2024/04/14 00:53:47;;;;;;;5.88;1.17;;;13.10;99.90;;;;;;5269701;27;20379;-83
2024/04/14 00:56:16;;;;;;;9.50;1.70;;;13.10;99.90;;;;;;5273059;27;20002;-83
2024/04/14 00:58:53;;;;;;;;;;;;;;;;;;;;;
2024/04/14 01:01:24;;;;;;;7.68;1.33;;;13.00;99.90;;;;;;5274600;27;20002;-83
2024/04/14 01:03:53;;;;;;;6.15;1.25;;;13.00;99.90;;;;;;5245548;27;20013;-83
2024/04/14 01:06:18;;;;;;;7.18;1.35;;;12.90;99.90;;;;;;5270020;27;20002;-83
2024/04/14 01:08:47;;;;;;;12.68;1.52;;;12.90;99.90;;;;;;5248805;27;20002;-84
2024/04/14 01:11:16;;;;;;;8.40;1.52;;;12.90;99.90;;;;;;5277986;27;20006;-83
2024/04/14 01:13:46;;;;;;;7.22;1.70;;;12.90;99.90;;;;;;5249288;27;20003;-84
2024/04/14 01:16:14;;;;;;;6.65;1.35;;;12.90;99.90;;;;;;5263506;27;20009;-84
2024/04/14 01:18:39;;;;;;;9.60;1.80;;;12.90;99.90;;;;;;5278309;27;20002;-84
2024/04/14 01:21:05;;;;;;;9.93;1.67;;;12.90;99.90;;;;;;5272306;27;20003;-85
2024/04/14 01:23:33;;;;;;;9.52;1.90;;;12.90;99.90;;;;;;5278994;27;20008;-84
2024/04/14 01:25:59;;;;;;;13.95;1.85;;;12.90;99.90;;;;;;5278613;27;20010;-85
2024/04/14 01:28:24;;;;;;;12.82;3.13;;;12.90;99.90;;;;;;5279234;27;20005;-84
2024/04/14 01:30:52;;;;;;;10.07;1.98;;;13.00;99.90;;;;;;5271338;27;20003;-83
2024/04/14 01:33:18;;;;;;;13.85;1.80;;;13.10;99.90;;;;;;5273789;27;20006;-84
2024/04/14 01:35:43;;;;;;;6.60;1.38;;;13.10;99.90;;;;;;5265098;27;20052;-83
2024/04/14 01:38:09;;;;;;;11.00;1.85;;;13.10;99.90;;;;;;5222158;27;20014;-85
2024/04/14 01:40:34;;;;;;;8.63;2.08;;;13.10;99.90;;;;;;5279494;27;20006;-84
2024/04/14 01:43:00;;;;;;;12.82;2.97;;;13.10;99.90;;;;;;5249902;27;19998;-83
2024/04/14 01:45:28;;;;;;;16.02;3.28;;;13.10;99.90;;;;;;5249575;27;19999;-84
2024/04/14 01:47:54;;;;;;;15.18;2.30;;;13.10;99.90;;;;;;5278378;27;20010;-84
2024/04/14 01:50:20;;;;;;;10.95;2.28;;;13.10;99.90;;;;;;5255326;27;20010;-84
2024/04/14 01:52:45;;;;;;;11.63;1.73;;;13.10;99.90;;;;;;5230361;27;19999;-84
2024/04/14 01:55:11;;;;;;;11.90;2.60;;;13.10;99.90;;;;;;5271510;27;20084;-84
2024/04/14 01:57:37;;;;;;;10.02;1.77;;;13.10;99.90;;;;;;5219798;27;20501;-84
2024/04/14 02:00:02;;;;;;;13.57;2.67;;;13.10;99.90;;;;;;5249894;27;19998;-84
2024/04/14 02:02:28;;;;;;;10.63;1.73;;;13.10;99.90;;;;;;5269532;27;20369;-84
2024/04/14 02:04:55;;;;;;;10.57;2.05;;;13.00;99.90;;;;;;5248624;27;20006;-85
2024/04/14 02:07:21;;;;;;;14.85;2.25;;;13.00;99.90;;;;;;5248751;27;20423;-85
2024/04/14 02:09:50;;;;;;;14.73;2.42;;;13.00;99.90;;;;;;5278846;27;20013;-84
2024/04/14 02:12:19;;;;;;;16.00;2.78;;;13.00;99.90;;;;;;5245445;27;20005;-85
2024/04/14 02:14:47;;;;;;;9.18;2.03;;;13.00;99.90;;;;;;5261504;27;20014;-84
2024/04/14 02:17:13;;;;;;;12.23;2.38;;;13.00;99.90;;;;;;5246485;27;20511;-84
2024/04/14 02:19:38;;;;;;;12.23;1.80;;;12.90;99.90;;;;;;5249124;27;20013;-84
2024/04/14 02:22:04;;;;;;;12.45;2.10;;;12.90;99.90;;;;;;5259745;27;19998;-84
2024/04/14 02:24:32;;;;;;;9.73;2.13;;;12.90;99.90;;;;;;5249324;27;20159;-84
2024/04/14 02:26:58;;;;;;;13.80;2.50;;;12.80;99.90;;;;;;5221781;27;20439;-84
2024/04/14 02:29:28;;;;;;;17.30;3.13;;;12.90;99.90;;;;;;5278502;27;20010;-84
2024/04/14 02:31:53;;;;;;;11.07;2.10;;;12.90;99.90;;;;;;5268221;27;20037;-84
2024/04/14 02:34:19;;;;;;;10.70;1.88;;;12.90;99.90;;;;;;5250233;27;20002;-84
2024/04/14 02:36:45;;;;;;;10.27;2.08;;;12.90;99.90;;;;;;5245440;27;20057;-85
2024/04/14 02:39:13;;;;;;;17.85;2.20;;;12.90;99.90;;;;;;5271566;27;20009;-84
2024/04/14 02:41:41;;;;;;;11.27;2.10;;;12.90;99.90;;;;;;5239647;27;20010;-84
2024/04/14 02:44:08;;;;;;;16.10;2.28;;;12.90;99.90;;;;;;5267889;27;20006;-84
2024/04/14 02:46:34;;;;;;;11.18;2.42;;;12.80;99.90;;;;;;5265050;27;20087;-84
2024/04/14 02:48:59;;;;;;;12.48;2.05;;;12.80;99.90;;;;;;5211420;27;20006;-84
2024/04/14 02:51:27;;;;;;;13.32;2.70;;;12.80;99.90;;;;;;5267509;27;20490;-83
2024/04/14 02:53:53;;;;;;;8.90;2.58;;;12.80;99.90;;;;;;5254365;27;20034;-84
2024/04/14 02:56:22;;;;;;;11.40;1.85;;;12.80;99.90;;;;;;5271708;27;20454;-84
2024/04/14 02:58:52;;;;;;;15.30;2.13;;;12.80;99.90;;;;;;5237864;27;20003;-84
2024/04/14 03:01:19;;;;;;;10.20;2.40;;;12.70;99.90;;;;;;5272060;27;20011;-84
2024/04/14 03:03:45;;;;;;;9.13;1.92;;;12.70;99.90;;;;;;5243954;27;20000;-84
2024/04/14 03:06:11;;;;;;;8.40;1.80;;;12.60;99.90;;;;;;5246531;27;20013;-84
2024/04/14 03:08:40;;;;;;;9.05;1.17;;;12.50;99.90;;;;;;5271228;27;20074;-85
2024/04/14 03:11:06;;;;;;;7.03;0.80;;;12.50;99.90;;;;;;5245630;27;20013;-85
2024/04/14 03:13:32;;;;;;;6.47;0.60;;;12.40;99.90;;;;;;5235534;27;20505;-86
2024/04/14 03:16:06;;;;;;;5.35;0.57;;;12.30;99.90;;;;;;5268721;27;20006;-85
2024/04/14 03:18:34;;;;;;;8.23;0.52;;;12.30;99.90;;;;;;5225924;27;20007;-85
2024/04/14 03:21:05;;;;;;;4.80;0.40;;;12.30;99.90;;;;;;5276857;27;20006;-85
2024/04/14 03:23:31;;;;;;;6.03;0.40;;;12.20;99.90;;;;;;5273468;27;20405;-85
2024/04/14 03:25:57;;;;;;;4.72;0.55;;;12.30;99.90;;;;;;5268325;27;20085;-84
2024/04/14 03:28:26;;;;;;;5.30;0.65;;;12.20;99.90;;;;;;5280922;27;20012;-84
2024/04/14 03:30:57;;;;;;;4.32;0.50;;;12.30;99.90;;;;;;5267974;27;20007;-84
2024/04/14 03:33:27;;;;;;;6.85;1.20;;;12.20;99.90;;;;;;5274628;27;20072;-84
2024/04/14 03:36:03;;;;;;;6.65;0.40;;;12.20;99.90;;;;;;5273850;27;20016;-84
2024/04/14 03:38:30;;;;;;;3.25;0.30;;;12.20;99.90;;;;;;5261734;27;20346;-85
2024/04/14 03:40:58;;;;;;;8.85;0.77;;;12.20;99.90;;;;;;5273486;27;20014;-84
2024/04/14 03:43:24;;;;;;;6.60;0.77;;;12.20;99.90;;;;;;5270062;27;20016;-84
2024/04/14 03:45:51;;;;;;;7.85;0.35;;;12.20;99.90;;;;;;5273263;27;20066;-84
2024/04/14 03:48:16;;;;;;;5.47;0.77;;;12.20;99.90;;;;;;5264942;27;20009;-84
2024/04/14 03:50:46;;;;;;;5.53;0.40;;;12.20;99.90;;;;;;5274254;27;20006;-84
2024/04/14 03:53:15;;;;;;;5.25;0.40;;;12.20;99.90;;;;;;5266050;27;20006;-85
2024/04/14 03:55:43;;;;;;;4.32;0.52;;;12.20;99.90;;;;;;5272662;27;20409;-84
2024/04/14 03:58:09;;;;;;;2.72;0.32;;;12.20;99.90;;;;;;5274151;27;20002;-83
2024/04/14 04:00:36;;;;;;;6.80;0.45;;;12.20;99.90;;;;;;5238992;27;20016;-84
2024/04/14 04:03:02;;;;;;;7.18;0.30;;;12.20;99.90;;;;;;5260304;27;20013;-84
2024/04/14 04:05:27;;;;;;;5.18;0.40;;;12.20;99.90;;;;;;5245450;27;20475;-83
2024/04/14 04:07:53;;;;;;;4.55;0.30;;;12.20;99.90;;;;;;5242553;27;20034;-84
2024/04/14 04:10:18;;;;;;;10.82;0.52;;;12.20;99.90;;;;;;5238115;27;20009;-84
2024/04/14 04:12:44;;;;;;;5.30;0.50;;;12.20;99.90;;;;;;5218815;27;20022;-85
2024/04/14 04:15:10;;;;;;;6.85;0.40;;;12.10;99.90;;;;;;5265957;27;20203;-84
2024/04/14 04:17:38;;;;;;;5.70;0.60;;;12.10;99.90;;;;;;5247481;27;20456;-84
2024/04/14 04:20:09;;;;;;;8.75;0.55;;;12.10;99.90;;;;;;5270072;27;20007;-84
2024/04/14 04:22:38;;;;;;;5.13;0.32;;;12.10;99.90;;;;;;5277835;27;20454;-84
2024/04/14 04:25:07;;;;;;;5.00;0.32;;;12.00;99.90;;;;;;5272139;27;20482;-84
2024/04/14 04:27:33;;;;;;;7.13;0.40;;;12.00;99.90;;;;;;5246092;27;20451;-84
2024/04/14 04:30:00;;;;;;;8.13;0.30;;;11.90;99.90;;;;;;5248205;27;20007;-84
2024/04/14 04:32:29;;;;;;;4.82;0.40;;;11.90;99.90;;;;;;5278420;27;19999;-85
2024/04/14 04:34:58;;;;;;;2.35;0.30;;;11.80;99.90;;;;;;5274787;27;20026;-84
2024/04/14 04:37:27;;;;;;;5.68;0.60;;;11.70;99.90;;;;;;5273823;27;20355;-85
2024/04/14 04:39:53;;;;;;;2.83;0.30;;;11.60;99.90;;;;;;5238830;27;19998;-83
2024/04/14 04:42:18;;;;;;;5.30;0.50;;;11.50;99.90;;;;;;5237428;27;20098;-83
2024/04/14 04:44:46;;;;;;;10.10;1.08;;;11.40;99.90;;;;;;5244233;27;20006;-85
2024/04/14 04:47:12;;;;;;;4.20;0.45;;;11.40;99.90;;;;;;5248122;27;20003;-85
2024/04/14 04:49:38;;;;;;;4.50;0.50;;;11.30;99.90;;;;;;5234924;27;20024;-84
2024/04/14 04:52:03;;;;;;;7.60;0.70;;;11.30;99.90;;;;;;5237703;27;20010;-83
2024/04/14 04:54:31;;;;;;;6.20;0.50;;;11.20;99.90;;;;;;5265071;27;20017;-83
2024/04/14 04:57:01;;;;;;;7.47;0.85;;;11.20;99.90;;;;;;5273036;27;19998;-84
2024/04/14 04:59:34;;;;;;;10.52;0.50;;;11.10;99.90;;;;;;5269204;27;20012;-84
2024/04/14 05:02:00;;;;;;;2.85;0.35;;;11.10;99.90;;;;;;5244889;27;20004;-83
2024/04/14 05:04:40;;;;;;;6.20;0.55;;;11.10;99.90;;;;;;5271214;27;20025;-84
2024/04/14 05:07:06;;;;;;;5.85;0.70;;;11.10;99.90;;;;;;5240303;27;19999;-84
2024/04/14 05:09:31;;;;;;;7.15;0.70;;;11.00;99.90;;;;;;5261228;27;20003;-84
2024/04/14 05:11:57;;;;;;;8.38;0.88;;;11.00;99.90;;;;;;5276434;27;20010;-84
2024/04/14 05:14:23;;;;;;;5.30;0.60;;;11.00;99.90;;;;;;5263147;27;20439;-84
2024/04/14 05:16:49;;;;;;;11.13;1.00;;;11.00;99.90;;;;;;5266976;27;20073;-84
2024/04/14 05:19:14;;;;;;;11.55;1.33;;;11.00;99.90;;;;;;5271049;27;20080;-84
2024/04/14 05:21:40;;;;;;;7.85;0.90;;;11.00;99.90;;;;;;5247626;27;19998;-83
2024/04/14 05:24:11;;;;;;;8.07;0.90;;;11.00;99.90;;;;;;5232163;27;20006;-83
2024/04/14 05:26:37;;;;;;;8.88;0.65;;;11.00;99.90;;;;;;5248711;27;20002;-85
2024/04/14 05:29:05;;;;;;;7.07;0.70;;;11.00;99.90;;;;;;5264598;27;20481;-82
2024/04/14 05:31:30;;;;;;;7.80;0.68;;;11.00;99.90;;;;;;5237885;27;20484;-83
2024/04/14 05:33:56;;;;;;;7.50;0.70;;;11.10;99.90;;;;;;5244160;27;20003;-83
2024/04/14 05:36:24;;;;;;;12.15;0.90;;;11.10;99.90;;;;;;5218565;27;19999;-84
2024/04/14 05:38:50;;;;;;;9.40;0.60;;;11.10;99.90;;;;;;5265027;27;20010;-84
2024/04/14 05:41:19;;;;;;;9.18;0.70;;;11.10;99.90;;;;;;5264377;27;20002;-81
2024/04/14 05:43:45;;;;;;;12.77;1.00;;;11.20;99.90;;;;;;5273362;27;20451;-82
2024/04/14 05:46:10;;;;;;;7.90;0.57;;;11.10;99.90;;;;;;5243959;27;20014;-81
2024/04/14 05:48:36;;;;;;;9.88;0.60;;;11.10;99.90;;;;;;5275741;27;20346;-81
2024/04/14 05:51:02;;;;;;;6.82;0.40;;;11.20;99.90;;;;;;5240433;27;20003;-82
2024/04/14 05:53:27;;;;;;;11.30;1.15;;;11.20;99.90;;;;;;5275038;27;20002;-82
2024/04/14 05:55:58;;;;;;;8.52;0.55;;;11.20;99.90;;;;;;5243691;27;20021;-81
2024/04/14 05:58:32;;;;;;;11.60;0.90;;;11.30;99.90;;;;;;5242074;27;20039;-81
2024/04/14 06:01:03;;;;;;;9.05;0.60;;;11.30;99.90;;;;;;5251270;27;20018;-81
2024/04/14 06:03:31;;;;;;;9.45;0.70;;;11.30;99.90;;;;;;5250288;27;20001;-81
2024/04/14 06:05:57;;;;;;;7.05;0.70;;;11.30;99.90;;;;;;5247079;27;19999;-81
2024/04/14 06:08:25;;;;;;;9.57;0.52;;;11.40;99.90;;;;;;5247581;27;20575;-81
2024/04/14 06:10:51;;;;;;;7.38;0.90;;;11.40;99.90;;;;;;5243737;27;19999;-81
2024/04/14 06:13:16;;;;;;;10.90;1.00;;;11.40;99.90;;;;;;5244425;27;20013;-81
2024/04/14 06:15:46;;;;;;;10.68;0.47;;;11.50;99.90;;;;;;5241020;27;20010;-81
2024/04/14 06:18:15;;;;;;;7.55;1.17;;;11.50;99.90;;;;;;5242683;27;20009;-81
2024/04/14 06:20:41;;;;;;;8.77;1.27;;;11.60;99.90;;;;;;5256300;27;19998;-81
2024/04/14 06:23:06;;;;;;;7.88;0.50;;;11.60;99.90;;;;;;5260885;27;20006;-81
2024/04/14 06:25:32;;;;;;;11.65;1.10;;;11.60;99.90;;;;;;5247402;27;20002;-81
2024/04/14 06:27:58;;;;;;;9.38;0.77;;;11.60;99.90;;;;;;5262920;27;20070;-81
2024/04/14 06:30:24;;;;;;;8.30;0.88;;;11.60;99.90;;;;;;5264911;27;20007;-82
2024/04/14 06:32:50;;;;;;;6.47;0.40;;;11.60;99.90;;;;;;5237214;27;20007;-81
2024/04/14 06:35:16;;;;;;;6.70;0.60;;;11.70;99.90;;;;;;5238424;27;20010;-83
2024/04/14 06:37:44;;;;;;;9.50;0.80;;;11.80;99.90;;;;;;5248053;27;20002;-85
2024/04/14 06:40:10;;;;;;;5.53;0.57;;;11.70;99.90;;;;;;5248320;27;20002;-85
2024/04/14 06:42:39;;;;;;;3.92;0.57;;;11.80;99.90;;;;;;5234296;27;20343;-85
2024/04/14 06:45:11;;;;;;;5.60;0.73;;;11.90;99.90;;;;;;5270479;27;20006;-85
2024/04/14 06:47:38;;;;;;;7.77;0.63;;;11.90;99.90;;;;;;5248147;27;20006;-83
2024/04/14 06:50:05;;;;;;;5.55;0.50;;;11.90;99.90;;;;;;5268966;27;19998;-84
2024/04/14 06:52:35;;;;;;;7.30;0.40;;;12.00;99.90;;;;;;5248211;27;20014;-83
2024/04/14 06:55:03;;;;;;;7.53;0.75;;;12.00;99.90;;;;;;5245354;27;20006;-84
2024/04/14 06:57:31;;;;;;;4.15;0.40;;;12.00;99.90;;;;;;5273739;27;20390;-83
2024/04/14 07:00:00;;;;;;;9.85;0.60;;;12.10;99.90;;;;;;5238964;27;20406;-84
2024/04/14 07:02:26;;;;;;;17.38;0.70;;;12.10;99.90;;;;;;5236845;27;20490;-83
2024/04/14 07:04:55;;;;;;;6.88;0.70;;;12.10;99.90;;;;;;5269797;27;20013;-82
2024/04/14 07:07:21;;;;;;;5.75;0.65;;;12.10;99.90;;;;;;5276919;27;20014;-81
2024/04/14 07:09:47;;;;;;;5.47;0.40;;;12.10;99.90;;;;;;5240829;27;20470;-80
2024/04/14 07:12:12;;;;;;;5.38;0.60;;;12.20;99.90;;;;;;5268232;27;20015;-81
2024/04/14 07:14:39;;;;;;;5.28;0.40;;;12.20;99.90;;;;;;5244415;27;20018;-81
2024/04/14 07:17:04;;;;;;;10.15;0.70;;;12.30;99.90;;;;;;5277319;27;20438;-81
2024/04/14 07:19:37;;;;;;;6.93;0.68;;;12.30;99.90;;;;;;5256878;27;20516;-81
2024/04/14 07:22:03;;;;;;;6.07;0.52;;;12.30;99.90;;;;;;5255453;27;20351;-82
2024/04/14 07:24:28;;;;;;;8.85;0.85;;;12.30;99.90;;;;;;5266682;27;20081;-82
2024/04/14 07:26:55;;;;;;;10.43;0.70;;;12.40;99.90;;;;;;5277504;27;20014;-83
2024/04/14 07:29:21;;;;;;;8.43;0.68;;;12.50;99.90;;;;;;5277665;27;20002;-82
2024/04/14 07:31:46;;;;;;;9.05;0.75;;;12.40;99.90;;;;;;5277861;27;20002;-82
2024/04/14 07:34:12;;;;;;;5.82;0.68;;;12.50;99.90;;;;;;5246970;27;20017;-82
2024/04/14 07:36:47;;;;;;;10.95;1.30;;;12.60;99.90;;;;;;5277212;27;20406;-81
2024/04/14 07:39:15;;;;;;;10.85;0.70;;;12.70;99.90;;;;;;5231883;27;20011;-83
2024/04/14 07:41:44;;;;;;;6.95;0.38;;;12.70;99.90;;;;;;5244688;27;20026;-79
2024/04/14 07:44:13;;;;;;;13.63;1.33;;;12.80;99.90;;;;;;5273981;27;20042;-80
2024/04/14 07:46:45;;;;;;;4.45;0.30;;;12.80;99.90;;;;;;5274520;27;19998;-81
2024/04/14 07:49:17;;;;;;;10.70;0.77;;;12.80;99.90;;;;;;5213181;27;20007;-80
2024/04/14 07:51:42;;;;;;;6.00;0.32;;;12.90;99.90;;;;;;5274847;27;20013;-80
2024/04/14 07:54:08;;;;;;;7.00;0.70;;;12.90;99.90;;;;;;5274192;27;20006;-79
2024/04/14 07:56:33;;;;;;;5.88;0.55;;;13.00;99.90;;;;;;5245730;27;20343;-80
2024/04/14 07:58:59;;;;;;;4.93;0.73;;;13.00;99.90;;;;;;5240271;27;20009;-79
2024/04/14 08:01:28;;;;;;;4.53;0.30;;;13.10;99.90;;;;;;5247283;27;20011;-82
2024/04/14 08:03:53;;;;;;;4.72;0.35;;;13.10;99.90;;;;;;5276447;27;20473;-81
2024/04/14 08:06:21;;;;;;;8.63;0.50;;;13.20;99.90;;;;;;5274533;27;19999;-81
2024/04/14 08:08:49;;;;;;;5.72;0.50;;;13.20;99.90;;;;;;5274168;27;20002;-79
2024/04/14 08:11:15;;;;;;;6.47;0.30;;;13.30;99.90;;;;;;5256320;27;20002;-81
2024/04/14 08:13:40;;;;;;;3.72;0.32;;;13.30;99.90;;;;;;5275888;27;19994;-80
2024/04/14 08:16:06;;;;;;;5.50;0.55;;;13.30;99.90;;;;;;5246166;27;20010;-81
2024/04/14 08:18:40;;;;;;;5.50;0.40;;;13.30;99.90;;;;;;5275738;27;20003;-80
2024/04/14 08:21:06;;;;;;;6.97;0.35;;;13.30;99.90;;;;;;5275835;27;20014;-81
2024/04/14 08:23:31;;;;;;;3.83;0.40;;;13.40;99.90;;;;;;5240461;27;20002;-81
2024/04/14 08:26:06;;;;;;;3.85;0.43;;;13.50;99.90;;;;;;5246568;27;19995;-80
2024/04/14 08:28:32;;;;;;;8.57;0.40;;;13.50;99.90;;;;;;5252365;27;19999;-81
2024/04/14 08:30:57;;;;;;;5.00;0.47;;;13.50;99.90;;;;;;5268594;27;20002;-81
2024/04/14 08:33:29;;;;;;;3.00;0.43;;;13.60;99.90;;;;;;5275620;27;20761;-81
2024/04/14 08:35:54;;;;;;;8.63;0.85;;;13.60;99.90;;;;;;5275928;27;20013;-81
2024/04/14 08:38:20;;;;;;;6.63;0.73;;;13.60;99.90;;;;;;5274367;27;20402;-81
2024/04/14 08:40:56;;;;;;;5.57;0.40;;;13.70;99.90;;;;;;5275033;27;20018;-86
2024/04/14 08:43:24;;;;;;;6.10;0.52;;;13.80;99.90;;;;;;5228601;27;19995;-86
2024/04/14 08:45:54;;;;;;;5.13;0.50;;;13.80;99.90;;;;;;5270463;27;20460;-85
2024/04/14 08:48:20;;;;;;;6.50;0.50;;;13.80;99.90;;;;;;5264047;27;20451;-86
2024/04/14 08:50:51;;;;;;;7.68;0.40;;;13.80;99.90;;;;;;5255949;27;20026;-86
2024/04/14 08:53:25;;;;;;;3.38;0.35;;;13.90;99.90;;;;;;5253121;27;20427;-85
2024/04/14 08:55:52;;;;;;;5.22;0.50;;;13.90;99.90;;;;;;5230161;27;20034;-85
2024/04/14 08:58:18;;;;;;;7.40;0.70;;;14.00;99.90;;;;;;5221149;27;20013;-83
2024/04/14 09:00:47;;;;;;;8.55;0.50;;;14.10;99.90;;;;;;5262733;27;20017;-85
2024/04/14 09:03:16;;;;;;;6.57;0.43;;;14.10;99.90;;;;;;5245668;27;19998;-85
2024/04/14 09:05:44;;;;;;;7.18;0.55;;;14.10;99.90;;;;;;5262039;27;19998;-85
2024/04/14 09:08:12;;;;;;;5.00;0.52;;;14.10;99.90;;;;;;5251062;27;20350;-86
2024/04/14 09:10:37;;;;;;;4.90;0.40;;;14.20;99.90;;;;;;5277197;27;20006;-86
2024/04/14 09:13:05;;;;;;;5.20;0.40;;;14.20;99.90;;;;;;5250538;27;20017;-85
2024/04/14 09:15:37;;;;;;;5.30;0.50;;;14.30;99.90;;;;;;5278206;27;20005;-86
2024/04/14 09:18:04;;;;;;;9.60;0.75;;;14.40;99.90;;;;;;5280247;27;20002;-87
2024/04/14 09:20:38;;;;;;;6.75;0.65;;;14.60;99.90;;;;;;5222225;27;20013;-86
2024/04/14 09:23:04;;;;;;;4.20;0.40;;;14.60;99.90;;;;;;5251790;27;20003;-86
2024/04/14 09:25:29;;;;;;;4.57;0.40;;;14.60;99.90;;;;;;5244126;27;20332;-86
2024/04/14 09:28:02;;;;;;;6.05;0.40;;;14.80;99.90;;;;;;5275422;27;20010;-86
2024/04/14 09:30:32;;;;;;;8.52;0.60;;;14.90;99.90;;;;;;5277054;27;19998;-86
2024/04/14 09:32:57;;;;;;;4.78;0.50;;;14.70;99.90;;;;;;5278055;27;20443;-86
2024/04/14 09:35:23;;;;;;;4.63;0.50;;;14.60;99.90;;;;;;5279273;27;20007;-86
2024/04/14 09:37:52;;;;;;;6.97;0.63;;;14.70;99.90;;;;;;5279654;27;20018;-85
2024/04/14 09:40:18;;;;;;;11.85;0.85;;;14.70;99.90;;;;;;5255963;27;20020;-85
2024/04/14 09:42:45;;;;;;;7.53;0.57;;;14.70;99.90;;;;;;5259932;27;20011;-86
2024/04/14 09:45:10;;;;;;;6.45;0.47;;;14.70;99.90;;;;;;5248801;27;19998;-86
2024/04/14 09:47:40;;;;;;;7.22;0.70;;;14.80;99.90;;;;;;5248417;27;20462;-85
2024/04/14 09:50:07;;;;;;;8.32;0.55;;;14.80;99.90;;;;;;5236907;27;20007;-85
2024/04/14 09:52:33;;;;;;;5.05;0.50;;;14.70;99.90;;;;;;5278310;27;20007;-86
2024/04/14 09:54:59;;;;;;;7.32;0.60;;;14.80;99.90;;;;;;5275455;27;20014;-86
2024/04/14 09:57:31;;;;;;;2.55;0.40;;;14.80;99.90;;;;;;5277187;27;20002;-86
2024/04/14 09:59:56;;;;;;;4.03;0.30;;;14.70;99.90;;;;;;5275447;27;20351;-85
2024/04/14 10:02:36;;;;;;;6.57;0.68;;;14.70;99.90;;;;;;5242267;27;20010;-85
2024/04/14 10:05:04;;;;;;;9.45;0.50;;;14.80;99.90;;;;;;5233318;27;20013;-85
2024/04/14 10:07:29;;;;;;;4.90;0.73;;;14.90;99.90;;;;;;5256521;27;20006;-85
2024/04/14 10:09:58;;;;;;;5.90;0.50;;;14.90;98.80;;;;;;5214973;27;20053;-86
2024/04/14 10:12:24;;;;;;;6.43;0.77;;;14.90;98.40;;;;;;5272079;27;20007;-86
2024/04/14 10:14:54;;;;;;;8.65;0.77;;;15.10;98.00;;;;;;5241251;27;20451;-84
2024/04/14 10:17:21;;;;;;;6.65;0.70;;;15.30;97.80;;;;;;5273406;27;20031;-87
2024/04/14 10:19:58;;;;;;;4.43;0.63;;;15.30;97.40;;;;;;5275665;27;20006;-85
2024/04/14 10:22:35;;;;;;;4.43;0.40;;;15.20;95.90;;;;;;5267869;27;20014;-86
2024/04/14 10:25:01;;;;;;;3.75;0.38;;;15.20;96.10;;;;;;5248151;27;19998;-86
2024/04/14 10:27:37;;;;;;;4.40;0.40;;;15.20;95.50;;;;;;5276396;27;20015;-86
2024/04/14 10:30:06;;;;;;;7.90;0.55;;;15.20;95.20;;;;;;5243164;27;20494;-86
2024/04/14 10:32:32;;;;;;;5.43;0.45;;;15.20;94.00;;;;;;5245192;27;20021;-86
2024/04/14 10:35:13;;;;;;;6.13;0.50;;;15.20;93.80;;;;;;5205963;27;20003;-86
2024/04/14 10:37:40;;;;;;;5.35;0.30;;;15.20;94.20;;;;;;5263692;27;20010;-86
2024/04/14 10:40:12;;;;;;;4.22;0.35;;;15.30;93.90;;;;;;5253187;27;20007;-86
2024/04/14 10:42:38;;;;;;;2.38;0.32;;;15.30;94.00;;;;;;5246410;27;20017;-86
2024/04/14 10:45:07;;;;;;;4.95;0.32;;;15.30;93.60;;;;;;5275404;27;20021;-87
2024/04/14 10:47:43;;;;;;;5.60;0.30;;;15.10;93.20;;;;;;5275221;27;20002;-86
2024/04/14 10:50:10;;;;;;;2.42;0.30;;;15.10;92.70;;;;;;5278768;27;20580;-86
2024/04/14 10:52:36;;;;;;;6.28;0.30;;;15.20;93.00;;;;;;5274268;27;20003;-85
2024/04/14 10:55:04;;;;;;;5.85;0.32;;;15.20;91.30;;;;;;5258036;27;20067;-86
2024/04/14 10:57:32;;;;;;;3.58;0.30;;;15.20;91.40;;;;;;5448920;21;20152;-91
2024/04/14 10:59:57;;;;;;;5.38;0.82;;;15.30;91.70;;;;;;5272839;27;20406;-89
2024/04/14 11:02:24;;;;;;;4.15;0.57;;;15.40;91.30;;;;;;5277920;27;20006;-89
2024/04/14 11:04:50;;;;;;;7.75;0.93;;;15.40;91.20;;;;;;5247402;27;20393;-90
2024/04/14 11:07:15;;;;;;;4.45;0.35;;;15.40;90.40;;;;;;5264078;27;20006;-88
2024/04/14 11:09:41;;;;;;;1.83;0.30;;;15.30;89.20;;;;;;5268439;27;19998;-89
2024/04/14 11:12:07;;;;;;;3.45;0.28;;;15.20;87.20;;;;;;5258786;27;20002;-89
2024/04/14 11:14:33;;;;;;;2.47;0.28;;;15.10;88.10;;;;;;5229959;27;20013;-87
2024/04/14 11:17:07;;;;;;;2.75;0.20;;;15.10;88.50;;;;;;5232688;27;20007;-86
2024/04/14 11:19:33;;;;;;;2.15;0.25;;;15.10;87.10;;;;;;5232867;27;20479;-88
2024/04/14 11:21:58;;;;;;;4.25;0.32;;;15.00;85.90;;;;;;5231466;27;20020;-88
2024/04/14 11:24:24;;;;;;;4.15;0.50;;;15.00;85.40;;;;;;5232738;27;20044;-89
2024/04/14 11:26:50;;;;;;;7.88;0.30;;;15.00;86.30;;;;;;5234422;27;20054;-89
2024/04/14 11:29:16;;;;;;;3.95;0.30;;;15.10;86.80;;;;;;5233613;27;20070;-89
2024/04/14 11:31:42;;;;;;;3.75;0.30;;;15.20;85.50;;;;;;5231190;27;20010;-89
2024/04/14 11:34:08;;;;;;;4.50;0.30;;;15.10;85.40;;;;;;5263061;27;20539;-87
2024/04/14 11:36:34;;;;;;;5.65;0.60;;;15.10;85.00;;;;;;5229079;27;20002;-87
2024/04/14 11:39:04;;;;;;;5.15;0.40;;;15.00;85.60;;;;;;5234590;27;20010;-87
2024/04/14 11:41:30;;;;;;;6.15;0.30;;;15.10;86.00;;;;;;5260461;27;20002;-87
2024/04/14 11:43:57;;;;;;;4.35;0.50;;;15.30;86.30;;;;;;5262160;27;20009;-86
2024/04/14 11:46:22;;;;;;;5.65;0.75;;;15.50;86.20;;;;;;5256408;27;20034;-85
2024/04/14 11:48:48;;;;;;;4.20;0.25;;;15.60;85.20;;;;;;5228285;27;20006;-85
2024/04/14 11:51:14;;;;;;;5.20;0.30;;;15.60;85.00;;;;;;5235215;27;20084;-87
2024/04/14 11:53:40;;;;;;;4.15;0.30;;;15.50;84.30;;;;;;5233209;27;20014;-87
2024/04/14 11:56:06;;;;;;;2.63;0.28;;;15.50;85.10;;;;;;5237833;27;20006;-88
2024/04/14 11:58:31;;;;;;;3.03;0.47;;;15.40;84.70;;;;;;5227532;27;20079;-87
2024/04/14 12:00:57;;;;;;;2.80;0.30;;;15.40;84.70;;;;;;5253272;27;20011;-88
2024/04/14 12:03:23;;;;;;;1.48;0.20;;;15.40;85.30;;;;;;5254145;27;20035;-88
2024/04/14 12:05:50;;;;;;;6.90;0.68;;;15.50;85.70;;;;;;5235922;27;20066;-89
2024/04/14 12:08:15;;;;;;;3.17;0.40;;;15.60;85.60;;;;;;5228996;27;20169;-89
2024/04/14 12:10:41;;;;;;;3.28;0.40;;;15.70;85.30;;;;;;5258080;27;20431;-89
2024/04/14 12:13:07;;;;;;;4.25;0.40;;;15.80;86.10;;;;;;5228911;27;20043;-86
2024/04/14 12:15:33;;;;;;;3.15;0.28;;;15.90;85.50;;;;;;5231089;27;20050;-88
2024/04/14 12:17:59;;;;;;;5.47;0.35;;;15.80;85.50;;;;;;5227062;27;20411;-88
2024/04/14 12:20:26;;;;;;;3.80;0.40;;;16.00;85.70;;;;;;5256931;27;20025;-89
2024/04/14 12:22:52;;;;;;;3.90;0.50;;;16.30;86.60;;;;;;5234456;27;20003;-89
2024/04/14 12:25:19;;;;;;;3.60;0.38;;;16.60;85.00;;;;;;5233092;27;20022;-89
2024/04/14 12:27:44;;;;;;;4.70;0.30;;;16.90;85.00;;;;;;5255909;27;20016;-89
2024/04/14 12:30:10;;;;;;;4.22;0.30;;;17.10;84.20;;;;;;5255978;27;19999;-89
2024/04/14 12:32:36;;;;;;;4.45;0.45;;;17.30;83.40;;;;;;5227947;27;20014;-88
2024/04/14 12:35:02;;;;;;;4.18;0.47;;;17.40;81.70;;;;;;5259549;27;20021;-89
2024/04/14 12:37:27;;;;;;;3.55;0.60;;;17.40;81.10;;;;;;5237292;27;20007;-88
2024/04/14 12:39:53;;;;;;;4.47;0.40;;;17.50;80.80;;;;;;5231573;27;20011;-88
2024/04/14 12:42:19;;;;;;;6.38;0.40;;;17.40;79.10;;;;;;5227358;27;22947;-89
2024/04/14 12:44:44;;;;;;;4.22;0.30;;;17.20;79.70;;;;;;5224832;27;19998;-89